VietnamFixed distance
Vietnam Mountain Marathon 100km
21–22 Nov2020
Distance
100km
Finishers
138124 men14 women
Winning time
13:01:11h
Median pace
4.41km/h
Pace distribution
138 finishers · 3.91–7.68 km/h · mean 4.71
Every finisher ran the same 100 km course, so these paces are directly comparable.
Histogram of finisher pace. 138 finishers ranged from 3.91 to 7.68 kilometres per hour, with a mean of 4.71 and a median of 4.41. The busiest band is 4.0 to 4.5 kilometres per hour, with 66 finishers.
Results
Ranks 51–100 of 138
| Rank | Runner | Time | Pace | Cat. | Placing |
|---|---|---|---|---|---|
| 51 | 21:33:13h | 4.64 | M40 | 48th M · 10th M40 | |
| 52 | Tdmn | 21:38:07h | 4.62 | M35 | 49th M · 13th M35 |
| 53 | VKL Runners | 21:39:11h | 4.62 | M23 | 50th M · 22nd M23 |
| 54 | Bien HOA Runners | 21:40:57h | 4.61 | M23 | 51st M · 23rd M23 |
| 55 | Payoo | 21:41:20h | 4.61 | M23 | 52nd M · 24th M23 |
| 56 | Activ Runners | 21:42:05h | 4.61 | M40 | 53rd M · 11th M40 |
| 57 | 21:46:23h | 4.59 | M45 | 54th M · 4th M45 | |
| 58 | 21:46:23h | 4.59 | M45 | 54th M · 4th M45 | |
| 59 | Geek UP | 21:48:19h | 4.59 | M23 | 56th M · 25th M23 |
| 60 | Sunday Running Club (Src) | 21:56:07h | 4.56 | M35 | 57th M · 14th M35 |
| 61 | Sunday Running Club | 22:03:04h | 4.54 | M23 | 58th M · 26th M23 |
| 62 | Tailwind Adventure Com... | 22:09:04h | 4.51 | M40 | 59th M · 12th M40 |
| 63 | Sunday Running Club (Src) | 22:12:40h | 4.50 | M35 | 60th M · 15th M35 |
| 64 | 22:14:35h | 4.50 | W35 | 4th F · 1st W35 | |
| 65 | Hong Ngoc Runners | 22:15:45h | 4.49 | M23 | 61st M · 27th M23 |
| 66 | Vbrc | 22:26:50h | 4.46 | M35 | 62nd M · 16th M35 |
| 67 | PHU THO Runners | 22:27:07h | 4.45 | M35 | 63rd M · 17th M35 |
| 68 | 22:30:46h | 4.44 | M35 | 64th M · 18th M35 | |
| 69 | Vpiron | 22:34:39h | 4.43 | M40 | 65th M · 13th M40 |
| 70 | Operation Smile | 22:41:09h | 4.41 | W40 | 5th F · 1st W40 |
| 71 | 22:41:09h | 4.41 | M23 | 66th M · 28th M23 | |
| 72 | HCM Running Club | 22:41:59h | 4.41 | M45 | 67th M · 6th M45 |
| 73 | HO CHI Minh Running Club | 22:42:31h | 4.40 | M23 | 68th M · 29th M23 |
| 74 | Danang Runners | 22:42:46h | 4.40 | M35 | 69th M · 19th M35 |
| 75 | R4B (Run for Beer) | 22:43:51h | 4.40 | M45 | 70th M · 7th M45 |
| 76 | 3C | 22:44:18h | 4.40 | M23 | 71st M · 30th M23 |
| 77 | SRT- SOC Son Running Team | 22:48:49h | 4.38 | M23 | 72nd M · 31st M23 |
| 78 | SRT-Soc Son Running Team | 22:48:49h | 4.38 | M23 | 72nd M · 31st M23 |
| 79 | Trio69 | 22:49:08h | 4.38 | M45 | 74th M · 8th M45 |
| 80 | Ecopark Runners | 22:57:03h | 4.36 | M45 | 75th M · 9th M45 |
| 81 | Freshfields for Newborns | 22:59:58h | 4.35 | M40 | 76th M · 14th M40 |
| 82 | RFF | 23:00:05h | 4.35 | M35 | 77th M · 20th M35 |
| 83 | Tailwind Adventure Com... | 23:02:10h | 4.34 | M35 | 78th M · 21st M35 |
| 84 | PHU THO Runners | 23:03:11h | 4.34 | M35 | 79th M · 22nd M35 |
| 85 | ChạY Xong NhạU | 23:03:27h | 4.34 | M23 | 80th M · 33rd M23 |
| 86 | Ultra Trail Team | 23:03:28h | 4.34 | M40 | 81st M · 15th M40 |
| 87 | R4B (Run for Beer) | 23:05:43h | 4.33 | M40 | 82nd M · 16th M40 |
| 88 | Timesrunners | 23:14:00h | 4.30 | M40 | 83rd M · 17th M40 |
| 89 | Ecopark Runners | 23:15:26h | 4.30 | M40 | 84th M · 18th M40 |
| 90 | Trio69 | 23:16:16h | 4.30 | M40 | 85th M · 19th M40 |
| 91 | VKL Runners | 23:18:40h | 4.29 | M23 | 86th M · 34th M23 |
| 92 | 23:19:03h | 4.29 | M23 | 87th M · 35th M23 | |
| 93 | Activ Runners | 23:19:17h | 4.29 | M23 | 88th M · 36th M23 |
| 94 | Hong Ngoc Runners | 23:25:37h | 4.27 | M23 | 89th M · 37th M23 |
| 95 | 23:26:00h | 4.27 | M23 | 90th M · 38th M23 | |
| 96 | Vietrunners | 23:29:08h | 4.26 | M23 | 91st M · 39th M23 |
| 97 | 23:31:47h | 4.25 | M23 | 92nd M · 40th M23 | |
| 98 | Ho Lon Team | 23:32:02h | 4.25 | M23 | 93rd M · 41st M23 |
| 99 | Smap | 23:34:16h | 4.24 | M45 | 94th M · 10th M45 |
| 100 | 23:40:45h | 4.22 | M40 | 95th M · 20th M40 |
- 5148th M · 10th M40Time21:33:13hPace4.64Cat.M40
- 52Tdmn49th M · 13th M35Time21:38:07hPace4.62Cat.M35
- 53VKL Runners50th M · 22nd M23Time21:39:11hPace4.62Cat.M23
- 54Bien HOA Runners51st M · 23rd M23Time21:40:57hPace4.61Cat.M23
- 55Payoo52nd M · 24th M23Time21:41:20hPace4.61Cat.M23
- 56Activ Runners53rd M · 11th M40Time21:42:05hPace4.61Cat.M40
- 5754th M · 4th M45Time21:46:23hPace4.59Cat.M45
- 5854th M · 4th M45Time21:46:23hPace4.59Cat.M45
- 59Geek UP56th M · 25th M23Time21:48:19hPace4.59Cat.M23
- 60Sunday Running Club (Src)57th M · 14th M35Time21:56:07hPace4.56Cat.M35
- 61Sunday Running Club58th M · 26th M23Time22:03:04hPace4.54Cat.M23
- 62Tailwind Adventure Com...59th M · 12th M40Time22:09:04hPace4.51Cat.M40
- 63Sunday Running Club (Src)60th M · 15th M35Time22:12:40hPace4.50Cat.M35
- 644th F · 1st W35Time22:14:35hPace4.50Cat.W35
- 65Hong Ngoc Runners61st M · 27th M23Time22:15:45hPace4.49Cat.M23
- 66Vbrc62nd M · 16th M35Time22:26:50hPace4.46Cat.M35
- 67PHU THO Runners63rd M · 17th M35Time22:27:07hPace4.45Cat.M35
- 6864th M · 18th M35Time22:30:46hPace4.44Cat.M35
- 69Vpiron65th M · 13th M40Time22:34:39hPace4.43Cat.M40
- 70Operation Smile5th F · 1st W40Time22:41:09hPace4.41Cat.W40
- 7166th M · 28th M23Time22:41:09hPace4.41Cat.M23
- 72HCM Running Club67th M · 6th M45Time22:41:59hPace4.41Cat.M45
- 73HO CHI Minh Running Club68th M · 29th M23Time22:42:31hPace4.40Cat.M23
- 74Danang Runners69th M · 19th M35Time22:42:46hPace4.40Cat.M35
- 75R4B (Run for Beer)70th M · 7th M45Time22:43:51hPace4.40Cat.M45
- 763C71st M · 30th M23Time22:44:18hPace4.40Cat.M23
- 77SRT- SOC Son Running Team72nd M · 31st M23Time22:48:49hPace4.38Cat.M23
- 78SRT-Soc Son Running Team72nd M · 31st M23Time22:48:49hPace4.38Cat.M23
- 79Trio6974th M · 8th M45Time22:49:08hPace4.38Cat.M45
- 80Ecopark Runners75th M · 9th M45Time22:57:03hPace4.36Cat.M45
- 81Freshfields for Newborns76th M · 14th M40Time22:59:58hPace4.35Cat.M40
- 82RFF77th M · 20th M35Time23:00:05hPace4.35Cat.M35
- 83Tailwind Adventure Com...78th M · 21st M35Time23:02:10hPace4.34Cat.M35
- 84PHU THO Runners79th M · 22nd M35Time23:03:11hPace4.34Cat.M35
- 85ChạY Xong NhạU80th M · 33rd M23Time23:03:27hPace4.34Cat.M23
- 86Ultra Trail Team81st M · 15th M40Time23:03:28hPace4.34Cat.M40
- 87R4B (Run for Beer)82nd M · 16th M40Time23:05:43hPace4.33Cat.M40
- 88Timesrunners83rd M · 17th M40Time23:14:00hPace4.30Cat.M40
- 89Ecopark Runners84th M · 18th M40Time23:15:26hPace4.30Cat.M40
- 90Trio6985th M · 19th M40Time23:16:16hPace4.30Cat.M40
- 91VKL Runners86th M · 34th M23Time23:18:40hPace4.29Cat.M23
- 9287th M · 35th M23Time23:19:03hPace4.29Cat.M23
- 93Activ Runners88th M · 36th M23Time23:19:17hPace4.29Cat.M23
- 94Hong Ngoc Runners89th M · 37th M23Time23:25:37hPace4.27Cat.M23
- 9590th M · 38th M23Time23:26:00hPace4.27Cat.M23
- 96Vietrunners91st M · 39th M23Time23:29:08hPace4.26Cat.M23
- 9792nd M · 40th M23Time23:31:47hPace4.25Cat.M23
- 98Ho Lon Team93rd M · 41st M23Time23:32:02hPace4.25Cat.M23
- 99Smap94th M · 10th M45Time23:34:16hPace4.24Cat.M45
- 10095th M · 20th M40Time23:40:45hPace4.22Cat.M40
Showing ranks 51–100 of 138